sensor_id;sensor_type;location;lat;lon;timestamp;P1;durP1;ratioP1;P2;durP2;ratioP2
4831;SDS011;2430;51.322;7.864;2024-02-26T00:00:13;9.57;;;7.17;;
4831;SDS011;2430;51.322;7.864;2024-02-26T00:02:39;11.33;;;7.80;;
4831;SDS011;2430;51.322;7.864;2024-02-26T00:05:08;9.50;;;6.33;;
4831;SDS011;2430;51.322;7.864;2024-02-26T00:07:34;9.27;;;6.40;;
4831;SDS011;2430;51.322;7.864;2024-02-26T00:10:00;10.40;;;6.63;;
4831;SDS011;2430;51.322;7.864;2024-02-26T00:12:27;9.10;;;6.37;;
4831;SDS011;2430;51.322;7.864;2024-02-26T00:14:53;10.90;;;7.00;;
4831;SDS011;2430;51.322;7.864;2024-02-26T00:17:19;8.43;;;6.43;;
4831;SDS011;2430;51.322;7.864;2024-02-26T00:19:45;11.00;;;6.70;;
4831;SDS011;2430;51.322;7.864;2024-02-26T00:22:13;11.47;;;7.03;;
4831;SDS011;2430;51.322;7.864;2024-02-26T00:24:39;8.87;;;6.50;;
4831;SDS011;2430;51.322;7.864;2024-02-26T00:27:06;9.17;;;6.63;;
4831;SDS011;2430;51.322;7.864;2024-02-26T00:29:32;10.33;;;6.77;;
4831;SDS011;2430;51.322;7.864;2024-02-26T00:31:58;11.57;;;6.47;;
4831;SDS011;2430;51.322;7.864;2024-02-26T00:34:25;7.70;;;6.10;;
4831;SDS011;2430;51.322;7.864;2024-02-26T00:36:51;11.00;;;6.30;;
4831;SDS011;2430;51.322;7.864;2024-02-26T00:39:18;8.10;;;6.80;;
4831;SDS011;2430;51.322;7.864;2024-02-26T00:41:45;12.63;;;8.43;;
4831;SDS011;2430;51.322;7.864;2024-02-26T00:44:14;8.90;;;6.60;;
4831;SDS011;2430;51.322;7.864;2024-02-26T00:46:40;10.73;;;7.23;;
4831;SDS011;2430;51.322;7.864;2024-02-26T00:49:07;11.90;;;7.90;;
4831;SDS011;2430;51.322;7.864;2024-02-26T00:51:33;11.73;;;7.70;;
4831;SDS011;2430;51.322;7.864;2024-02-26T00:53:59;8.43;;;6.10;;
4831;SDS011;2430;51.322;7.864;2024-02-26T00:56:27;8.63;;;5.73;;
4831;SDS011;2430;51.322;7.864;2024-02-26T00:58:53;5.27;;;4.13;;
4831;SDS011;2430;51.322;7.864;2024-02-26T01:01:19;5.37;;;4.30;;
4831;SDS011;2430;51.322;7.864;2024-02-26T01:03:46;5.60;;;4.13;;
4831;SDS011;2430;51.322;7.864;2024-02-26T01:06:12;4.20;;;3.80;;
4831;SDS011;2430;51.322;7.864;2024-02-26T01:08:38;5.77;;;4.10;;
4831;SDS011;2430;51.322;7.864;2024-02-26T01:11:05;4.97;;;3.87;;
4831;SDS011;2430;51.322;7.864;2024-02-26T01:13:32;4.90;;;4.17;;
4831;SDS011;2430;51.322;7.864;2024-02-26T01:15:58;8.33;;;4.40;;
4831;SDS011;2430;51.322;7.864;2024-02-26T01:18:25;4.00;;;3.60;;
4831;SDS011;2430;51.322;7.864;2024-02-26T01:20:52;4.70;;;3.60;;
4831;SDS011;2430;51.322;7.864;2024-02-26T01:23:19;4.83;;;3.57;;
4831;SDS011;2430;51.322;7.864;2024-02-26T01:25:45;4.33;;;3.40;;
4831;SDS011;2430;51.322;7.864;2024-02-26T01:28:12;3.97;;;3.60;;
4831;SDS011;2430;51.322;7.864;2024-02-26T01:30:39;3.63;;;3.33;;
4831;SDS011;2430;51.322;7.864;2024-02-26T01:33:06;4.97;;;3.57;;
4831;SDS011;2430;51.322;7.864;2024-02-26T01:35:33;3.90;;;3.40;;
4831;SDS011;2430;51.322;7.864;2024-02-26T01:37:58;4.23;;;3.20;;
4831;SDS011;2430;51.322;7.864;2024-02-26T01:40:26;4.00;;;3.27;;
4831;SDS011;2430;51.322;7.864;2024-02-26T01:42:52;3.80;;;3.50;;
4831;SDS011;2430;51.322;7.864;2024-02-26T01:45:19;4.10;;;3.70;;
4831;SDS011;2430;51.322;7.864;2024-02-26T01:47:51;4.53;;;3.60;;
4831;SDS011;2430;51.322;7.864;2024-02-26T01:50:17;3.27;;;2.97;;
4831;SDS011;2430;51.322;7.864;2024-02-26T01:52:44;4.70;;;3.50;;
4831;SDS011;2430;51.322;7.864;2024-02-26T01:55:11;3.30;;;3.00;;
4831;SDS011;2430;51.322;7.864;2024-02-26T01:57:39;5.00;;;3.20;;
4831;SDS011;2430;51.322;7.864;2024-02-26T02:00:06;4.20;;;2.80;;
4831;SDS011;2430;51.322;7.864;2024-02-26T02:02:33;3.43;;;2.90;;
4831;SDS011;2430;51.322;7.864;2024-02-26T02:05:01;2.83;;;2.63;;
4831;SDS011;2430;51.322;7.864;2024-02-26T02:07:27;2.73;;;2.53;;
4831;SDS011;2430;51.322;7.864;2024-02-26T02:09:54;2.20;;;1.97;;
4831;SDS011;2430;51.322;7.864;2024-02-26T02:12:21;2.80;;;2.40;;
4831;SDS011;2430;51.322;7.864;2024-02-26T02:14:47;2.40;;;2.17;;
4831;SDS011;2430;51.322;7.864;2024-02-26T02:17:14;2.57;;;2.37;;
4831;SDS011;2430;51.322;7.864;2024-02-26T02:19:40;3.00;;;2.40;;
4831;SDS011;2430;51.322;7.864;2024-02-26T02:22:08;2.93;;;2.20;;
4831;SDS011;2430;51.322;7.864;2024-02-26T02:24:34;2.37;;;2.17;;
4831;SDS011;2430;51.322;7.864;2024-02-26T02:27:00;2.67;;;2.30;;
4831;SDS011;2430;51.322;7.864;2024-02-26T02:29:27;3.30;;;2.43;;
4831;SDS011;2430;51.322;7.864;2024-02-26T02:31:56;2.47;;;2.20;;
4831;SDS011;2430;51.322;7.864;2024-02-26T02:34:23;3.30;;;2.73;;
4831;SDS011;2430;51.322;7.864;2024-02-26T02:36:51;3.57;;;2.40;;
4831;SDS011;2430;51.322;7.864;2024-02-26T02:39:19;3.37;;;2.80;;
4831;SDS011;2430;51.322;7.864;2024-02-26T02:41:45;4.37;;;2.70;;
4831;SDS011;2430;51.322;7.864;2024-02-26T02:44:12;2.30;;;2.10;;
4831;SDS011;2430;51.322;7.864;2024-02-26T02:46:38;2.47;;;2.13;;
4831;SDS011;2430;51.322;7.864;2024-02-26T02:49:07;3.10;;;2.30;;
4831;SDS011;2430;51.322;7.864;2024-02-26T02:51:34;2.43;;;2.23;;
4831;SDS011;2430;51.322;7.864;2024-02-26T02:54:00;2.90;;;2.30;;
4831;SDS011;2430;51.322;7.864;2024-02-26T02:56:28;3.03;;;2.47;;
4831;SDS011;2430;51.322;7.864;2024-02-26T02:58:54;4.20;;;2.50;;
4831;SDS011;2430;51.322;7.864;2024-02-26T03:01:21;2.77;;;2.27;;
4831;SDS011;2430;51.322;7.864;2024-02-26T03:03:48;2.50;;;2.30;;
4831;SDS011;2430;51.322;7.864;2024-02-26T03:06:14;2.13;;;1.93;;
4831;SDS011;2430;51.322;7.864;2024-02-26T03:08:41;2.80;;;2.37;;
4831;SDS011;2430;51.322;7.864;2024-02-26T03:11:07;2.63;;;2.17;;
4831;SDS011;2430;51.322;7.864;2024-02-26T03:13:35;3.67;;;2.17;;
4831;SDS011;2430;51.322;7.864;2024-02-26T03:16:04;2.60;;;2.40;;
4831;SDS011;2430;51.322;7.864;2024-02-26T03:18:30;4.80;;;1.90;;
4831;SDS011;2430;51.322;7.864;2024-02-26T03:20:57;2.20;;;2.00;;
4831;SDS011;2430;51.322;7.864;2024-02-26T03:23:23;3.30;;;2.30;;
4831;SDS011;2430;51.322;7.864;2024-02-26T03:25:50;2.73;;;2.53;;
4831;SDS011;2430;51.322;7.864;2024-02-26T03:28:17;2.13;;;1.93;;
4831;SDS011;2430;51.322;7.864;2024-02-26T03:30:45;2.10;;;1.73;;
4831;SDS011;2430;51.322;7.864;2024-02-26T03:33:11;2.30;;;2.20;;
4831;SDS011;2430;51.322;7.864;2024-02-26T03:35:38;3.40;;;2.70;;
4831;SDS011;2430;51.322;7.864;2024-02-26T03:38:04;5.10;;;3.40;;
4831;SDS011;2430;51.322;7.864;2024-02-26T03:40:31;8.33;;;3.90;;
4831;SDS011;2430;51.322;7.864;2024-02-26T03:42:58;3.50;;;3.20;;
4831;SDS011;2430;51.322;7.864;2024-02-26T03:45:24;3.20;;;2.67;;
4831;SDS011;2430;51.322;7.864;2024-02-26T03:47:53;3.33;;;2.73;;
4831;SDS011;2430;51.322;7.864;2024-02-26T03:50:20;3.87;;;2.80;;
4831;SDS011;2430;51.322;7.864;2024-02-26T03:52:46;2.60;;;2.20;;
4831;SDS011;2430;51.322;7.864;2024-02-26T03:55:13;2.90;;;1.80;;
4831;SDS011;2430;51.322;7.864;2024-02-26T03:57:40;2.40;;;2.17;;
4831;SDS011;2430;51.322;7.864;2024-02-26T04:00:06;2.00;;;1.80;;
4831;SDS011;2430;51.322;7.864;2024-02-26T04:02:33;2.23;;;2.03;;
4831;SDS011;2430;51.322;7.864;2024-02-26T04:05:01;2.03;;;1.60;;
4831;SDS011;2430;51.322;7.864;2024-02-26T04:07:28;1.50;;;1.40;;
4831;SDS011;2430;51.322;7.864;2024-02-26T04:09:54;1.60;;;1.50;;
4831;SDS011;2430;51.322;7.864;2024-02-26T04:12:21;1.87;;;1.77;;
4831;SDS011;2430;51.322;7.864;2024-02-26T04:14:48;1.87;;;1.77;;
4831;SDS011;2430;51.322;7.864;2024-02-26T04:17:14;1.77;;;1.67;;
4831;SDS011;2430;51.322;7.864;2024-02-26T04:19:41;1.43;;;1.33;;
4831;SDS011;2430;51.322;7.864;2024-02-26T04:22:09;1.60;;;1.50;;
4831;SDS011;2430;51.322;7.864;2024-02-26T04:24:36;1.73;;;1.30;;
4831;SDS011;2430;51.322;7.864;2024-02-26T04:27:02;1.90;;;1.53;;
4831;SDS011;2430;51.322;7.864;2024-02-26T04:29:29;1.40;;;1.27;;
4831;SDS011;2430;51.322;7.864;2024-02-26T04:31:55;1.30;;;1.20;;
4831;SDS011;2430;51.322;7.864;2024-02-26T04:34:22;1.40;;;1.30;;
4831;SDS011;2430;51.322;7.864;2024-02-26T04:36:48;1.27;;;1.17;;
4831;SDS011;2430;51.322;7.864;2024-02-26T04:39:16;1.30;;;1.20;;
4831;SDS011;2430;51.322;7.864;2024-02-26T04:41:43;1.20;;;1.10;;
4831;SDS011;2430;51.322;7.864;2024-02-26T04:44:10;1.50;;;1.40;;
4831;SDS011;2430;51.322;7.864;2024-02-26T04:46:36;1.40;;;1.30;;
4831;SDS011;2430;51.322;7.864;2024-02-26T04:49:03;2.83;;;1.20;;
4831;SDS011;2430;51.322;7.864;2024-02-26T04:51:30;3.10;;;1.43;;
4831;SDS011;2430;51.322;7.864;2024-02-26T04:53:56;1.20;;;1.10;;
4831;SDS011;2430;51.322;7.864;2024-02-26T04:56:24;4.50;;;1.43;;
4831;SDS011;2430;51.322;7.864;2024-02-26T04:58:51;1.23;;;1.13;;
4831;SDS011;2430;51.322;7.864;2024-02-26T05:01:18;1.63;;;1.20;;
4831;SDS011;2430;51.322;7.864;2024-02-26T05:03:45;1.57;;;1.20;;
4831;SDS011;2430;51.322;7.864;2024-02-26T05:06:11;1.50;;;1.40;;
4831;SDS011;2430;51.322;7.864;2024-02-26T05:08:38;1.73;;;1.33;;
4831;SDS011;2430;51.322;7.864;2024-02-26T05:11:05;1.50;;;1.40;;
4831;SDS011;2430;51.322;7.864;2024-02-26T05:13:33;1.30;;;1.20;;
4831;SDS011;2430;51.322;7.864;2024-02-26T05:15:59;1.33;;;1.10;;
4831;SDS011;2430;51.322;7.864;2024-02-26T05:18:26;2.60;;;1.90;;
4831;SDS011;2430;51.322;7.864;2024-02-26T05:20:53;3.37;;;2.07;;
4831;SDS011;2430;51.322;7.864;2024-02-26T05:23:19;4.20;;;2.10;;
4831;SDS011;2430;51.322;7.864;2024-02-26T05:25:46;3.60;;;2.27;;
4831;SDS011;2430;51.322;7.864;2024-02-26T05:28:13;2.50;;;2.03;;
4831;SDS011;2430;51.322;7.864;2024-02-26T05:30:41;2.20;;;2.00;;
4831;SDS011;2430;51.322;7.864;2024-02-26T05:33:08;2.60;;;2.00;;
4831;SDS011;2430;51.322;7.864;2024-02-26T05:35:34;2.13;;;1.90;;
4831;SDS011;2430;51.322;7.864;2024-02-26T05:38:00;3.20;;;2.00;;
4831;SDS011;2430;51.322;7.864;2024-02-26T05:40:26;2.70;;;2.20;;
4831;SDS011;2430;51.322;7.864;2024-02-26T05:42:53;7.07;;;2.17;;
4831;SDS011;2430;51.322;7.864;2024-02-26T05:45:22;2.90;;;2.60;;
4831;SDS011;2430;51.322;7.864;2024-02-26T05:47:50;2.93;;;2.50;;
4831;SDS011;2430;51.322;7.864;2024-02-26T05:50:16;4.30;;;2.40;;
4831;SDS011;2430;51.322;7.864;2024-02-26T05:52:42;3.57;;;2.20;;
4831;SDS011;2430;51.322;7.864;2024-02-26T05:55:09;3.20;;;2.20;;
4831;SDS011;2430;51.322;7.864;2024-02-26T05:57:35;2.20;;;2.00;;
4831;SDS011;2430;51.322;7.864;2024-02-26T06:00:05;2.13;;;1.67;;
4831;SDS011;2430;51.322;7.864;2024-02-26T06:02:31;2.10;;;1.60;;
4831;SDS011;2430;51.322;7.864;2024-02-26T06:04:59;2.20;;;2.00;;
4831;SDS011;2430;51.322;7.864;2024-02-26T06:07:25;1.70;;;1.50;;
4831;SDS011;2430;51.322;7.864;2024-02-26T06:09:52;2.40;;;1.70;;
4831;SDS011;2430;51.322;7.864;2024-02-26T06:12:18;3.40;;;1.90;;
4831;SDS011;2430;51.322;7.864;2024-02-26T06:14:44;1.80;;;1.67;;
4831;SDS011;2430;51.322;7.864;2024-02-26T06:17:11;2.40;;;2.03;;
4831;SDS011;2430;51.322;7.864;2024-02-26T06:19:37;2.00;;;1.80;;
4831;SDS011;2430;51.322;7.864;2024-02-26T06:22:05;2.00;;;1.77;;
4831;SDS011;2430;51.322;7.864;2024-02-26T06:24:31;2.40;;;1.63;;
4831;SDS011;2430;51.322;7.864;2024-02-26T06:26:57;2.70;;;1.90;;
4831;SDS011;2430;51.322;7.864;2024-02-26T06:29:23;2.40;;;2.00;;
4831;SDS011;2430;51.322;7.864;2024-02-26T06:31:50;2.50;;;2.30;;
4831;SDS011;2430;51.322;7.864;2024-02-26T06:34:16;3.37;;;2.80;;
4831;SDS011;2430;51.322;7.864;2024-02-26T06:36:43;9.43;;;2.20;;
4831;SDS011;2430;51.322;7.864;2024-02-26T06:39:10;2.80;;;2.00;;
4831;SDS011;2430;51.322;7.864;2024-02-26T06:41:37;2.30;;;2.10;;
4831;SDS011;2430;51.322;7.864;2024-02-26T06:44:10;2.50;;;2.10;;
4831;SDS011;2430;51.322;7.864;2024-02-26T06:46:37;7.03;;;1.80;;
4831;SDS011;2430;51.322;7.864;2024-02-26T06:49:03;2.67;;;1.90;;
4831;SDS011;2430;51.322;7.864;2024-02-26T06:51:30;2.13;;;1.90;;
4831;SDS011;2430;51.322;7.864;2024-02-26T06:53:56;5.13;;;2.30;;
4831;SDS011;2430;51.322;7.864;2024-02-26T06:56:24;3.77;;;2.43;;
4831;SDS011;2430;51.322;7.864;2024-02-26T06:58:50;1.70;;;1.60;;
4831;SDS011;2430;51.322;7.864;2024-02-26T07:01:17;2.27;;;1.70;;
4831;SDS011;2430;51.322;7.864;2024-02-26T07:03:44;1.63;;;1.53;;
4831;SDS011;2430;51.322;7.864;2024-02-26T07:06:10;2.90;;;2.37;;
4831;SDS011;2430;51.322;7.864;2024-02-26T07:08:38;4.60;;;3.50;;
4831;SDS011;2430;51.322;7.864;2024-02-26T07:11:06;3.37;;;3.07;;
4831;SDS011;2430;51.322;7.864;2024-02-26T07:13:34;2.43;;;2.23;;
4831;SDS011;2430;51.322;7.864;2024-02-26T07:16:00;3.83;;;2.43;;
4831;SDS011;2430;51.322;7.864;2024-02-26T07:18:27;2.17;;;2.00;;
4831;SDS011;2430;51.322;7.864;2024-02-26T07:20:53;2.20;;;1.80;;
4831;SDS011;2430;51.322;7.864;2024-02-26T07:23:19;2.27;;;2.00;;
4831;SDS011;2430;51.322;7.864;2024-02-26T07:25:45;1.80;;;1.70;;
4831;SDS011;2430;51.322;7.864;2024-02-26T07:28:14;8.23;;;2.50;;
4831;SDS011;2430;51.322;7.864;2024-02-26T07:30:41;4.07;;;2.47;;
4831;SDS011;2430;51.322;7.864;2024-02-26T07:33:08;2.60;;;2.40;;
4831;SDS011;2430;51.322;7.864;2024-02-26T07:35:34;3.23;;;2.70;;
4831;SDS011;2430;51.322;7.864;2024-02-26T07:38:01;3.33;;;2.97;;
4831;SDS011;2430;51.322;7.864;2024-02-26T07:40:28;5.83;;;3.00;;
4831;SDS011;2430;51.322;7.864;2024-02-26T07:42:54;2.67;;;2.37;;
4831;SDS011;2430;51.322;7.864;2024-02-26T07:45:21;4.23;;;3.00;;
4831;SDS011;2430;51.322;7.864;2024-02-26T07:47:48;3.57;;;2.80;;
4831;SDS011;2430;51.322;7.864;2024-02-26T07:50:16;2.70;;;2.50;;
4831;SDS011;2430;51.322;7.864;2024-02-26T07:52:43;2.50;;;2.30;;
4831;SDS011;2430;51.322;7.864;2024-02-26T07:55:09;9.70;;;5.80;;
4831;SDS011;2430;51.322;7.864;2024-02-26T07:57:36;5.00;;;3.30;;
4831;SDS011;2430;51.322;7.864;2024-02-26T08:00:04;5.47;;;2.97;;
4831;SDS011;2430;51.322;7.864;2024-02-26T08:02:32;3.93;;;2.87;;
4831;SDS011;2430;51.322;7.864;2024-02-26T08:05:00;4.33;;;3.33;;
4831;SDS011;2430;51.322;7.864;2024-02-26T08:07:26;4.00;;;3.43;;
4831;SDS011;2430;51.322;7.864;2024-02-26T08:09:53;5.10;;;3.87;;
4831;SDS011;2430;51.322;7.864;2024-02-26T08:12:19;4.10;;;3.30;;
4831;SDS011;2430;51.322;7.864;2024-02-26T08:14:46;3.57;;;3.03;;
4831;SDS011;2430;51.322;7.864;2024-02-26T08:17:12;9.40;;;2.93;;
4831;SDS011;2430;51.322;7.864;2024-02-26T08:19:38;3.80;;;2.80;;
4831;SDS011;2430;51.322;7.864;2024-02-26T08:22:06;4.40;;;2.80;;
4831;SDS011;2430;51.322;7.864;2024-02-26T08:24:32;2.93;;;2.23;;
4831;SDS011;2430;51.322;7.864;2024-02-26T08:26:58;2.63;;;2.10;;
4831;SDS011;2430;51.322;7.864;2024-02-26T08:29:25;2.17;;;1.93;;
4831;SDS011;2430;51.322;7.864;2024-02-26T08:31:51;2.70;;;2.00;;
4831;SDS011;2430;51.322;7.864;2024-02-26T08:34:17;3.20;;;2.00;;
4831;SDS011;2430;51.322;7.864;2024-02-26T08:36:44;2.00;;;1.90;;
4831;SDS011;2430;51.322;7.864;2024-02-26T08:39:11;2.20;;;2.00;;
4831;SDS011;2430;51.322;7.864;2024-02-26T08:41:38;2.60;;;2.10;;
4831;SDS011;2430;51.322;7.864;2024-02-26T08:44:06;2.50;;;2.30;;
4831;SDS011;2430;51.322;7.864;2024-02-26T08:46:32;2.50;;;2.30;;
4831;SDS011;2430;51.322;7.864;2024-02-26T08:48:58;6.00;;;2.30;;
4831;SDS011;2430;51.322;7.864;2024-02-26T08:51:25;6.10;;;2.10;;
4831;SDS011;2430;51.322;7.864;2024-02-26T08:53:51;4.30;;;2.37;;
4831;SDS011;2430;51.322;7.864;2024-02-26T08:56:20;2.87;;;2.13;;
4831;SDS011;2430;51.322;7.864;2024-02-26T08:58:46;4.30;;;3.03;;
4831;SDS011;2430;51.322;7.864;2024-02-26T09:01:13;2.70;;;2.30;;
4831;SDS011;2430;51.322;7.864;2024-02-26T09:03:40;2.17;;;2.03;;
4831;SDS011;2430;51.322;7.864;2024-02-26T09:06:06;3.00;;;2.70;;
4831;SDS011;2430;51.322;7.864;2024-02-26T09:08:32;2.37;;;2.17;;
4831;SDS011;2430;51.322;7.864;2024-02-26T09:11:01;2.97;;;2.50;;
4831;SDS011;2430;51.322;7.864;2024-02-26T09:13:29;3.20;;;2.30;;
4831;SDS011;2430;51.322;7.864;2024-02-26T09:15:56;2.50;;;2.27;;
4831;SDS011;2430;51.322;7.864;2024-02-26T09:18:22;2.40;;;2.20;;
4831;SDS011;2430;51.322;7.864;2024-02-26T09:20:48;2.83;;;2.57;;
4831;SDS011;2430;51.322;7.864;2024-02-26T09:23:16;2.77;;;2.37;;
4831;SDS011;2430;51.322;7.864;2024-02-26T09:25:42;3.77;;;2.80;;
4831;SDS011;2430;51.322;7.864;2024-02-26T09:28:08;3.90;;;2.93;;
4831;SDS011;2430;51.322;7.864;2024-02-26T09:30:36;3.60;;;3.23;;
4831;SDS011;2430;51.322;7.864;2024-02-26T09:33:03;5.20;;;2.90;;
4831;SDS011;2430;51.322;7.864;2024-02-26T09:35:30;4.00;;;2.70;;
4831;SDS011;2430;51.322;7.864;2024-02-26T09:37:56;5.03;;;2.57;;
4831;SDS011;2430;51.322;7.864;2024-02-26T09:40:22;3.20;;;2.40;;
4831;SDS011;2430;51.322;7.864;2024-02-26T09:42:49;2.77;;;2.53;;
4831;SDS011;2430;51.322;7.864;2024-02-26T09:45:19;5.07;;;2.10;;
4831;SDS011;2430;51.322;7.864;2024-02-26T09:47:49;3.47;;;2.17;;
4831;SDS011;2430;51.322;7.864;2024-02-26T09:50:16;3.30;;;2.27;;
4831;SDS011;2430;51.322;7.864;2024-02-26T09:52:43;4.40;;;2.50;;
4831;SDS011;2430;51.322;7.864;2024-02-26T09:55:09;8.43;;;2.77;;
4831;SDS011;2430;51.322;7.864;2024-02-26T09:57:36;3.20;;;2.53;;
4831;SDS011;2430;51.322;7.864;2024-02-26T10:00:03;3.47;;;2.57;;
4831;SDS011;2430;51.322;7.864;2024-02-26T10:02:30;5.77;;;2.53;;
4831;SDS011;2430;51.322;7.864;2024-02-26T10:04:58;4.27;;;3.63;;
4831;SDS011;2430;51.322;7.864;2024-02-26T10:07:27;5.80;;;3.03;;
4831;SDS011;2430;51.322;7.864;2024-02-26T10:09:55;5.77;;;3.07;;
4831;SDS011;2430;51.322;7.864;2024-02-26T10:12:21;4.00;;;2.60;;
4831;SDS011;2430;51.322;7.864;2024-02-26T10:14:48;7.90;;;3.30;;
4831;SDS011;2430;51.322;7.864;2024-02-26T10:17:14;9.53;;;3.20;;
4831;SDS011;2430;51.322;7.864;2024-02-26T10:19:41;7.70;;;3.20;;
4831;SDS011;2430;51.322;7.864;2024-02-26T10:22:08;5.87;;;3.03;;
4831;SDS011;2430;51.322;7.864;2024-02-26T10:24:35;5.53;;;3.40;;
4831;SDS011;2430;51.322;7.864;2024-02-26T10:27:01;5.30;;;3.10;;
4831;SDS011;2430;51.322;7.864;2024-02-26T10:29:27;4.50;;;2.73;;
4831;SDS011;2430;51.322;7.864;2024-02-26T10:31:54;4.30;;;3.90;;
4831;SDS011;2430;51.322;7.864;2024-02-26T10:34:20;4.50;;;3.30;;
4831;SDS011;2430;51.322;7.864;2024-02-26T10:36:50;6.60;;;4.07;;
4831;SDS011;2430;51.322;7.864;2024-02-26T10:39:17;6.60;;;4.40;;
4831;SDS011;2430;51.322;7.864;2024-02-26T10:41:44;6.97;;;3.80;;
4831;SDS011;2430;51.322;7.864;2024-02-26T10:44:11;6.50;;;4.03;;
4831;SDS011;2430;51.322;7.864;2024-02-26T10:46:38;6.83;;;4.50;;
4831;SDS011;2430;51.322;7.864;2024-02-26T10:49:12;5.67;;;4.10;;
4831;SDS011;2430;51.322;7.864;2024-02-26T10:51:39;4.40;;;3.33;;
4831;SDS011;2430;51.322;7.864;2024-02-26T10:54:07;4.50;;;3.60;;
4831;SDS011;2430;51.322;7.864;2024-02-26T10:56:37;4.97;;;3.80;;
4831;SDS011;2430;51.322;7.864;2024-02-26T10:59:06;6.77;;;3.80;;
4831;SDS011;2430;51.322;7.864;2024-02-26T11:01:33;5.50;;;3.20;;
4831;SDS011;2430;51.322;7.864;2024-02-26T11:04:02;4.33;;;3.67;;
4831;SDS011;2430;51.322;7.864;2024-02-26T11:06:29;4.33;;;3.60;;
4831;SDS011;2430;51.322;7.864;2024-02-26T11:08:55;4.60;;;3.60;;
4831;SDS011;2430;51.322;7.864;2024-02-26T11:11:22;5.07;;;4.17;;
4831;SDS011;2430;51.322;7.864;2024-02-26T11:13:50;4.27;;;3.60;;
4831;SDS011;2430;51.322;7.864;2024-02-26T11:16:17;6.00;;;4.10;;
4831;SDS011;2430;51.322;7.864;2024-02-26T11:18:43;6.27;;;4.10;;
4831;SDS011;2430;51.322;7.864;2024-02-26T11:21:10;6.70;;;4.57;;
4831;SDS011;2430;51.322;7.864;2024-02-26T11:23:37;5.30;;;4.77;;
4831;SDS011;2430;51.322;7.864;2024-02-26T11:26:05;7.43;;;4.73;;
4831;SDS011;2430;51.322;7.864;2024-02-26T11:28:32;7.53;;;5.47;;
4831;SDS011;2430;51.322;7.864;2024-02-26T11:31:00;6.53;;;5.17;;
4831;SDS011;2430;51.322;7.864;2024-02-26T11:33:29;5.93;;;4.53;;
4831;SDS011;2430;51.322;7.864;2024-02-26T11:35:55;7.50;;;5.13;;
4831;SDS011;2430;51.322;7.864;2024-02-26T11:38:23;8.67;;;5.53;;
4831;SDS011;2430;51.322;7.864;2024-02-26T11:40:50;5.20;;;4.60;;
4831;SDS011;2430;51.322;7.864;2024-02-26T11:43:16;6.10;;;4.77;;
4831;SDS011;2430;51.322;7.864;2024-02-26T11:45:49;6.80;;;5.43;;
4831;SDS011;2430;51.322;7.864;2024-02-26T11:48:19;8.13;;;5.90;;
4831;SDS011;2430;51.322;7.864;2024-02-26T11:50:46;6.67;;;5.30;;
4831;SDS011;2430;51.322;7.864;2024-02-26T11:53:19;7.40;;;5.70;;
4831;SDS011;2430;51.322;7.864;2024-02-26T11:55:45;6.90;;;5.50;;
4831;SDS011;2430;51.322;7.864;2024-02-26T11:58:12;9.40;;;5.80;;
4831;SDS011;2430;51.322;7.864;2024-02-26T12:00:39;9.20;;;6.23;;
4831;SDS011;2430;51.322;7.864;2024-02-26T12:03:06;8.10;;;6.70;;
4831;SDS011;2430;51.322;7.864;2024-02-26T12:05:34;7.30;;;6.40;;
4831;SDS011;2430;51.322;7.864;2024-02-26T12:08:02;9.10;;;6.60;;
4831;SDS011;2430;51.322;7.864;2024-02-26T12:10:31;7.80;;;6.37;;
4831;SDS011;2430;51.322;7.864;2024-02-26T12:13:02;10.10;;;7.47;;
4831;SDS011;2430;51.322;7.864;2024-02-26T12:15:32;6.63;;;5.93;;
4831;SDS011;2430;51.322;7.864;2024-02-26T12:18:00;9.60;;;6.67;;
4831;SDS011;2430;51.322;7.864;2024-02-26T12:20:27;8.73;;;6.80;;
4831;SDS011;2430;51.322;7.864;2024-02-26T12:22:54;10.40;;;6.60;;
4831;SDS011;2430;51.322;7.864;2024-02-26T12:25:23;10.20;;;7.50;;
4831;SDS011;2430;51.322;7.864;2024-02-26T12:27:49;10.30;;;7.27;;
4831;SDS011;2430;51.322;7.864;2024-02-26T12:30:16;7.90;;;6.70;;
4831;SDS011;2430;51.322;7.864;2024-02-26T12:32:43;8.27;;;6.87;;
4831;SDS011;2430;51.322;7.864;2024-02-26T12:35:09;9.90;;;7.30;;
4831;SDS011;2430;51.322;7.864;2024-02-26T12:37:35;9.50;;;7.37;;
4831;SDS011;2430;51.322;7.864;2024-02-26T12:40:05;10.10;;;7.37;;
4831;SDS011;2430;51.322;7.864;2024-02-26T12:42:36;9.77;;;7.60;;
4831;SDS011;2430;51.322;7.864;2024-02-26T12:45:05;8.23;;;7.07;;
4831;SDS011;2430;51.322;7.864;2024-02-26T12:47:37;9.77;;;7.27;;
4831;SDS011;2430;51.322;7.864;2024-02-26T12:50:04;8.00;;;6.30;;
4831;SDS011;2430;51.322;7.864;2024-02-26T12:52:31;13.43;;;7.67;;
4831;SDS011;2430;51.322;7.864;2024-02-26T12:54:57;10.40;;;7.33;;
4831;SDS011;2430;51.322;7.864;2024-02-26T12:57:25;9.03;;;6.97;;
4831;SDS011;2430;51.322;7.864;2024-02-26T12:59:54;8.87;;;6.53;;
4831;SDS011;2430;51.322;7.864;2024-02-26T13:02:20;9.30;;;6.50;;
4831;SDS011;2430;51.322;7.864;2024-02-26T13:04:46;8.10;;;6.23;;
4831;SDS011;2430;51.322;7.864;2024-02-26T13:07:13;6.93;;;5.73;;
4831;SDS011;2430;51.322;7.864;2024-02-26T13:09:41;7.90;;;6.60;;
4831;SDS011;2430;51.322;7.864;2024-02-26T13:12:08;8.27;;;6.07;;
4831;SDS011;2430;51.322;7.864;2024-02-26T13:14:39;8.07;;;6.00;;
4831;SDS011;2430;51.322;7.864;2024-02-26T13:17:05;7.33;;;6.07;;
4831;SDS011;2430;51.322;7.864;2024-02-26T13:19:32;8.33;;;6.47;;
4831;SDS011;2430;51.322;7.864;2024-02-26T13:22:03;7.07;;;5.77;;
4831;SDS011;2430;51.322;7.864;2024-02-26T13:24:29;6.23;;;5.60;;
4831;SDS011;2430;51.322;7.864;2024-02-26T13:26:56;7.03;;;5.93;;
4831;SDS011;2430;51.322;7.864;2024-02-26T13:29:22;6.53;;;5.60;;
4831;SDS011;2430;51.322;7.864;2024-02-26T13:31:54;8.80;;;6.30;;
4831;SDS011;2430;51.322;7.864;2024-02-26T13:34:24;13.43;;;5.43;;
4831;SDS011;2430;51.322;7.864;2024-02-26T13:36:51;8.00;;;6.33;;
4831;SDS011;2430;51.322;7.864;2024-02-26T13:39:23;8.23;;;5.60;;
4831;SDS011;2430;51.322;7.864;2024-02-26T13:41:50;6.63;;;4.83;;
4831;SDS011;2430;51.322;7.864;2024-02-26T13:44:17;9.40;;;5.33;;
4831;SDS011;2430;51.322;7.864;2024-02-26T13:46:43;6.40;;;5.00;;
4831;SDS011;2430;51.322;7.864;2024-02-26T13:49:11;8.70;;;5.20;;
4831;SDS011;2430;51.322;7.864;2024-02-26T13:51:38;9.00;;;5.13;;
4831;SDS011;2430;51.322;7.864;2024-02-26T13:54:04;7.50;;;5.00;;
4831;SDS011;2430;51.322;7.864;2024-02-26T13:56:30;5.30;;;4.80;;
4831;SDS011;2430;51.322;7.864;2024-02-26T13:58:57;7.03;;;5.20;;
4831;SDS011;2430;51.322;7.864;2024-02-26T14:01:24;7.70;;;4.63;;
4831;SDS011;2430;51.322;7.864;2024-02-26T14:03:50;7.00;;;5.77;;
4831;SDS011;2430;51.322;7.864;2024-02-26T14:06:21;7.90;;;6.10;;
4831;SDS011;2430;51.322;7.864;2024-02-26T14:08:50;10.30;;;6.23;;
4831;SDS011;2430;51.322;7.864;2024-02-26T14:11:20;9.67;;;6.40;;
4831;SDS011;2430;51.322;7.864;2024-02-26T14:13:46;10.87;;;7.80;;
4831;SDS011;2430;51.322;7.864;2024-02-26T14:16:15;9.83;;;6.50;;
4831;SDS011;2430;51.322;7.864;2024-02-26T14:18:42;6.67;;;5.93;;
4831;SDS011;2430;51.322;7.864;2024-02-26T14:21:10;9.43;;;6.47;;
4831;SDS011;2430;51.322;7.864;2024-02-26T14:23:37;11.93;;;6.07;;
4831;SDS011;2430;51.322;7.864;2024-02-26T14:26:05;7.03;;;5.43;;
4831;SDS011;2430;51.322;7.864;2024-02-26T14:28:31;6.40;;;5.80;;
4831;SDS011;2430;51.322;7.864;2024-02-26T14:30:59;5.50;;;5.00;;
4831;SDS011;2430;51.322;7.864;2024-02-26T14:33:25;8.37;;;6.70;;
4831;SDS011;2430;51.322;7.864;2024-02-26T14:35:51;7.20;;;6.33;;
4831;SDS011;2430;51.322;7.864;2024-02-26T14:38:18;7.60;;;5.33;;
4831;SDS011;2430;51.322;7.864;2024-02-26T14:40:45;8.10;;;6.10;;
4831;SDS011;2430;51.322;7.864;2024-02-26T14:43:12;9.83;;;5.87;;
4831;SDS011;2430;51.322;7.864;2024-02-26T14:45:38;6.70;;;5.97;;
4831;SDS011;2430;51.322;7.864;2024-02-26T14:48:04;6.97;;;5.77;;
4831;SDS011;2430;51.322;7.864;2024-02-26T14:50:31;6.43;;;5.83;;
4831;SDS011;2430;51.322;7.864;2024-02-26T14:52:57;6.80;;;5.83;;
4831;SDS011;2430;51.322;7.864;2024-02-26T14:55:25;8.63;;;6.43;;
4831;SDS011;2430;51.322;7.864;2024-02-26T14:57:53;8.47;;;6.07;;
4831;SDS011;2430;51.322;7.864;2024-02-26T15:00:22;7.27;;;5.90;;
4831;SDS011;2430;51.322;7.864;2024-02-26T15:02:48;8.87;;;7.00;;
4831;SDS011;2430;51.322;7.864;2024-02-26T15:05:14;7.33;;;5.93;;
4831;SDS011;2430;51.322;7.864;2024-02-26T15:07:42;10.73;;;6.70;;
4831;SDS011;2430;51.322;7.864;2024-02-26T15:10:08;9.23;;;7.43;;
4831;SDS011;2430;51.322;7.864;2024-02-26T15:12:35;8.10;;;7.07;;